createdAt,value
2022-08-21T00:02:17.898Z,100001.67
2022-08-21T00:04:54.596Z,99995.78
2022-08-21T00:07:20.908Z,100004.96
2022-08-21T00:09:50.623Z,100002.17
2022-08-21T00:12:20.994Z,100001.34
2022-08-21T00:14:52.039Z,100000.23
2022-08-21T00:17:24.405Z,99999.67
2022-08-21T00:19:54.305Z,99993.81
2022-08-21T00:22:25.239Z,99991.30
2022-08-21T00:24:54.647Z,99989.36
2022-08-21T00:27:24.530Z,99991.03
2022-08-21T00:29:54.833Z,99992.14
2022-08-21T00:32:25.213Z,99992.70
2022-08-21T00:34:55.320Z,100001.05
2022-08-21T00:37:25.014Z,100002.44
2022-08-21T00:39:55.016Z,100001.31
2022-08-21T00:42:24.117Z,100004.09
2022-08-21T00:44:54.273Z,100009.93
2022-08-21T00:47:23.118Z,100006.03
2022-08-21T00:49:53.028Z,100013.83
2022-08-21T00:52:25.946Z,100014.40
2022-08-21T00:54:57.816Z,100005.48
2022-08-21T00:57:39.366Z,100018.83
2022-08-21T01:00:12.442Z,100013.53
2022-08-21T01:02:41.893Z,100013.51
2022-08-21T01:05:11.035Z,100014.33
2022-08-21T01:07:42.551Z,100016.27
2022-08-21T01:10:21.618Z,100017.33
2022-08-21T01:12:45.317Z,100014.55
2022-08-21T01:15:16.295Z,100012.88
2022-08-21T01:17:46.700Z,100009.53
2022-08-21T01:20:17.033Z,100015.66
2022-08-21T01:22:46.377Z,100011.52
2022-08-21T01:25:20.021Z,100006.52
2022-08-21T01:27:50.262Z,100009.86
2022-08-21T01:30:27.121Z,100014.30
2022-08-21T01:32:57.442Z,100010.92
2022-08-21T01:35:27.007Z,100013.16
2022-08-21T01:37:56.623Z,100006.20
2022-08-21T01:40:25.797Z,100006.75
2022-08-21T01:42:56.129Z,100012.31
2022-08-21T01:45:26.379Z,100014.81
2022-08-21T01:47:56.411Z,100009.23
2022-08-21T01:50:26.346Z,100008.09
2022-08-21T01:52:56.925Z,100011.70
2022-08-21T01:55:26.844Z,100015.88
2022-08-21T01:57:56.881Z,100007.27
2022-08-21T02:00:26.601Z,100011.16
2022-08-21T02:02:56.853Z,100007.27
2022-08-21T02:05:26.711Z,99996.41
2022-08-21T02:07:56.213Z,99993.63
2022-08-21T02:10:29.461Z,99996.14
2022-08-21T02:13:00.590Z,99992.52
2022-08-21T02:15:32.134Z,99997.53
2022-08-21T02:18:02.008Z,99987.52
2022-08-21T02:20:35.642Z,99990.31
2022-08-21T02:23:05.282Z,99992.83
2022-08-21T02:25:36.858Z,99996.17
2022-08-21T02:28:09.572Z,99993.16
2022-08-21T02:30:43.803Z,99988.38
2022-08-21T02:33:14.069Z,99989.75
2022-08-21T02:35:43.144Z,99990.03
2022-08-21T02:38:16.047Z,99988.08
2022-08-21T02:40:48.351Z,99985.86
2022-08-21T02:43:19.698Z,99982.53
2022-08-21T02:45:49.847Z,99978.64
2022-08-21T02:48:22.526Z,99981.70
2022-08-21T02:50:58.920Z,99990.33
2022-08-21T02:53:29.026Z,99984.75
2022-08-21T02:55:59.697Z,99990.31
2022-08-21T02:58:33.411Z,100000.59
2022-08-21T03:01:03.665Z,100004.20
2022-08-21T03:03:35.000Z,99998.36
2022-08-21T03:06:06.875Z,100005.03
2022-08-21T03:08:38.278Z,100002.23
2022-08-21T03:11:07.750Z,100001.12
2022-08-21T03:13:39.878Z,99999.45
2022-08-21T03:16:12.344Z,99999.45
2022-08-21T03:18:41.895Z,100000.27
2022-08-21T03:21:11.512Z,100000.01
2022-08-21T03:23:42.707Z,99996.12
2022-08-21T03:26:12.094Z,100007.25
2022-08-21T03:28:41.961Z,100011.41
2022-08-21T03:31:12.189Z,100008.62
2022-08-21T03:33:43.111Z,100013.91
2022-08-21T03:36:13.318Z,100016.68
2022-08-21T03:38:42.328Z,100013.90
2022-08-21T03:41:13.019Z,100025.31
2022-08-21T03:43:45.123Z,100020.57
2022-08-21T03:46:15.157Z,100020.00
2022-08-21T03:48:45.073Z,100013.55
2022-08-21T03:51:16.408Z,100015.77
2022-08-21T03:53:45.628Z,100017.98
2022-08-21T03:56:16.683Z,100019.34
2022-08-21T03:58:46.367Z,100018.81
2022-08-21T04:01:16.058Z,100019.93
2022-08-21T04:03:45.653Z,100024.10
2022-08-21T04:06:14.668Z,100025.77
2022-08-21T04:08:43.884Z,100025.77
2022-08-21T04:11:15.402Z,100023.81
2022-08-21T04:13:45.764Z,100025.75
2022-08-21T04:16:15.289Z,100030.17
2022-08-21T04:18:44.646Z,100028.78
2022-08-21T04:21:13.707Z,100032.40
2022-08-21T04:23:43.016Z,100029.08
2022-08-21T04:26:13.060Z,100029.92
2022-08-21T04:28:42.769Z,100043.84
2022-08-21T04:31:14.195Z,100038.56
2022-08-21T04:33:44.937Z,100039.12
2022-08-21T04:36:14.222Z,100035.52
2022-08-21T04:38:44.631Z,100038.59
2022-08-21T04:41:14.950Z,100033.31
2022-08-21T04:43:45.054Z,100041.44
2022-08-21T04:46:14.202Z,100037.55
2022-08-21T04:48:43.342Z,100043.95
2022-08-21T04:51:25.882Z,100047.59
2022-08-21T04:54:15.279Z,100042.31
2022-08-21T04:56:57.479Z,100034.53
2022-08-21T04:59:33.059Z,100041.22
2022-08-21T05:02:04.516Z,100035.67
2022-08-21T05:04:35.342Z,100030.11
2022-08-21T05:07:08.174Z,100034.34
2022-08-21T05:09:38.446Z,100037.42
2022-08-21T05:12:08.228Z,100036.88
2022-08-21T05:14:38.260Z,100044.16
2022-08-21T05:17:07.580Z,100033.87
2022-08-21T05:19:36.525Z,100045.88
2022-08-21T05:22:05.665Z,100041.72
2022-08-21T05:24:36.089Z,100049.56
2022-08-21T05:27:07.405Z,100048.75
2022-08-21T05:29:37.196Z,100045.14
2022-08-21T05:32:11.978Z,100045.14
2022-08-21T05:34:41.767Z,100047.65
2022-08-21T05:37:13.267Z,100041.52
2022-08-21T05:40:20.362Z,100038.46
2022-08-21T05:42:14.057Z,100029.56
2022-08-21T05:44:43.645Z,100032.06
2022-08-21T05:47:16.290Z,100030.95
2022-08-21T05:49:46.577Z,100034.58
2022-08-21T05:52:21.546Z,100035.12
2022-08-21T05:54:51.274Z,100038.75
2022-08-21T05:57:21.488Z,100034.85
2022-08-21T05:59:51.386Z,100029.00
2022-08-21T06:02:21.167Z,100043.77
2022-08-21T06:04:50.750Z,100040.70
2022-08-21T06:07:20.246Z,100040.72
2022-08-21T06:09:50.403Z,100040.17
2022-08-21T06:12:20.702Z,100033.48
2022-08-21T06:14:52.279Z,100047.41
2022-08-21T06:17:22.586Z,100042.99
2022-08-21T06:19:55.522Z,100057.48
2022-08-21T06:22:25.617Z,100032.41
2022-08-21T06:24:55.521Z,100035.47
2022-08-21T06:27:26.714Z,100039.38
2022-08-21T06:29:58.296Z,100036.59
2022-08-21T06:32:27.280Z,100032.14
2022-08-21T06:34:57.349Z,100029.66
2022-08-21T06:37:28.234Z,100022.13
2022-08-21T06:39:57.592Z,100020.19
2022-08-21T06:42:29.112Z,100021.30
2022-08-21T06:44:59.179Z,100020.45
2022-08-21T06:47:29.133Z,100019.03
2022-08-21T06:49:58.523Z,100020.69
2022-08-21T06:52:28.556Z,100021.73
2022-08-21T06:54:58.065Z,100023.27
2022-08-21T06:57:28.609Z,100019.38
2022-08-21T06:59:59.093Z,100025.32
2022-08-21T07:02:28.038Z,100027.86
2022-08-21T07:04:57.722Z,100027.19
2022-08-21T07:07:27.585Z,100022.40
2022-08-21T07:09:57.923Z,100022.70
2022-08-21T07:12:28.186Z,100025.79
2022-08-21T07:14:59.126Z,100018.42
2022-08-21T07:17:29.581Z,100016.26
2022-08-21T07:19:58.916Z,100020.98
2022-08-21T07:22:28.431Z,100017.57
2022-08-21T07:24:58.979Z,100013.37
2022-08-21T07:27:29.261Z,100009.03
2022-08-21T07:29:59.130Z,100005.31
2022-08-21T07:32:28.582Z,100005.52
2022-08-21T07:34:57.759Z,100007.42
2022-08-21T07:37:27.947Z,100004.67
2022-08-21T07:39:58.240Z,100002.03
2022-08-21T07:42:28.226Z,100005.12
2022-08-21T07:44:58.134Z,100001.27
2022-08-21T07:47:41.497Z,100000.16
2022-08-21T07:49:58.590Z,100002.52
2022-08-21T07:52:31.239Z,100002.45
2022-08-21T07:55:05.500Z,99996.78
2022-08-21T07:57:32.742Z,99993.75
2022-08-21T08:00:04.390Z,100007.13
2022-08-21T08:02:37.352Z,99996.05
2022-08-21T08:05:09.803Z,99992.09
2022-08-21T08:07:38.813Z,99995.36
2022-08-21T08:10:09.276Z,99988.55
2022-08-21T08:12:40.424Z,99984.16
2022-08-21T08:15:13.293Z,99985.16
2022-08-21T08:17:43.688Z,99979.16
2022-08-21T08:20:14.031Z,99986.13
2022-08-21T08:22:43.430Z,99978.16
2022-08-21T08:25:14.485Z,99982.23
2022-08-21T08:27:46.232Z,99979.83
2022-08-21T08:30:16.287Z,99976.34
2022-08-21T08:32:46.300Z,99973.38
2022-08-21T08:35:15.290Z,99970.70
2022-08-21T08:37:46.772Z,99965.06
2022-08-21T08:40:36.339Z,99968.05
2022-08-21T08:43:07.250Z,99959.66
2022-08-21T08:45:39.151Z,99967.55
2022-08-21T08:48:14.365Z,99965.31
2022-08-21T08:50:57.066Z,99968.70
2022-08-21T08:53:36.855Z,99969.79
2022-08-21T08:56:06.582Z,99967.80
2022-08-21T08:58:40.034Z,99972.61
2022-08-21T09:01:17.317Z,99970.20
2022-08-21T09:03:49.549Z,99969.20
2022-08-21T09:06:36.496Z,99969.70
2022-08-21T09:09:23.153Z,99978.16
2022-08-21T09:12:22.308Z,99977.50
2022-08-21T09:15:22.806Z,99966.96
2022-08-21T09:18:12.603Z,99966.83
2022-08-21T09:21:02.966Z,99970.81
2022-08-21T09:23:43.432Z,99974.38
2022-08-21T09:26:18.713Z,99976.02
2022-08-21T09:28:49.624Z,99973.14
2022-08-21T09:31:33.487Z,99970.13
2022-08-21T09:34:05.379Z,99967.71
2022-08-21T09:36:47.161Z,99970.25
2022-08-21T09:39:31.022Z,99967.04
2022-08-21T09:42:05.174Z,99961.88
2022-08-21T09:44:41.772Z,99960.87
2022-08-21T09:47:12.280Z,99959.20
2022-08-21T09:49:43.457Z,99957.11
2022-08-21T09:52:19.750Z,99953.72
2022-08-21T09:54:52.982Z,99947.00
2022-08-21T09:57:46.697Z,99950.33
2022-08-21T10:00:27.330Z,99950.47
2022-08-21T10:02:58.345Z,99945.66
2022-08-21T10:05:28.938Z,99957.77
2022-08-21T10:07:58.711Z,99961.48
2022-08-21T10:10:31.198Z,99960.03
2022-08-21T10:13:15.148Z,99944.17
2022-08-21T10:16:34.937Z,99942.75
2022-08-21T10:19:15.174Z,99943.04
2022-08-21T10:21:58.216Z,99945.65
2022-08-21T10:24:32.866Z,99952.48
2022-08-21T10:27:19.042Z,99937.61
2022-08-21T10:30:16.786Z,99937.80
2022-08-21T10:33:06.548Z,99941.12
2022-08-21T10:35:53.002Z,99937.94
2022-08-21T10:39:07.108Z,99938.84
2022-08-21T10:41:59.241Z,99925.98
2022-08-21T10:45:12.921Z,99930.79
2022-08-21T10:47:49.630Z,99925.16
2022-08-21T10:50:26.715Z,99919.13
2022-08-21T10:53:38.077Z,99916.42
2022-08-21T10:56:23.369Z,99929.53
2022-08-21T10:59:28.187Z,99923.32
2022-08-21T11:02:36.784Z,99919.56
2022-08-21T11:05:28.445Z,99919.56
2022-08-21T11:08:15.181Z,99919.85
2022-08-21T11:11:01.385Z,99918.92
2022-08-21T11:13:50.655Z,99914.91
2022-08-21T11:16:42.960Z,99918.12
2022-08-21T11:19:38.330Z,99911.59
2022-08-21T11:22:18.669Z,99912.78
2022-08-21T11:25:13.771Z,99911.44
2022-08-21T11:27:57.215Z,99912.92
2022-08-21T11:30:28.617Z,99906.72
2022-08-21T11:33:26.757Z,99910.94
2022-08-21T11:36:16.849Z,99905.05
2022-08-21T11:38:54.089Z,99900.50
2022-08-21T11:41:40.260Z,99900.69
2022-08-21T11:44:37.139Z,99900.18
2022-08-21T11:47:46.431Z,99890.58
2022-08-21T11:50:34.975Z,99892.49
2022-08-21T11:53:03.299Z,99898.95
2022-08-21T11:55:46.094Z,99899.42
2022-08-21T11:58:37.584Z,99899.75
2022-08-21T12:01:13.389Z,99903.97
2022-08-21T12:03:47.500Z,99896.09
2022-08-21T12:06:24.040Z,99893.10
2022-08-21T12:09:00.979Z,99890.69
2022-08-21T12:11:31.232Z,99892.16
2022-08-21T12:14:12.084Z,99885.02
2022-08-21T12:16:46.817Z,99884.11
2022-08-21T12:19:30.189Z,99888.70
2022-08-21T12:22:07.515Z,99890.61
2022-08-21T12:24:49.805Z,99885.13
2022-08-21T12:27:31.925Z,99880.39
2022-08-21T12:30:04.558Z,99879.06
2022-08-21T12:32:46.463Z,99876.68
2022-08-21T12:35:25.058Z,99871.55
2022-08-21T12:38:18.496Z,99875.12
2022-08-21T12:41:04.954Z,99876.03
2022-08-21T12:43:42.185Z,99872.64
2022-08-21T12:46:21.145Z,99875.64
2022-08-21T12:48:53.386Z,99872.67
2022-08-21T12:51:51.631Z,99873.58
2022-08-21T12:54:29.135Z,99874.55
2022-08-21T12:57:05.147Z,99878.84
2022-08-21T12:59:36.040Z,99874.55
2022-08-21T13:02:07.592Z,99873.80
2022-08-21T13:04:40.776Z,99873.36
2022-08-21T13:07:13.574Z,99879.13
2022-08-21T13:09:50.856Z,99876.31
2022-08-21T13:12:21.868Z,99877.33
2022-08-21T13:14:51.920Z,99872.64
2022-08-21T13:17:23.638Z,99870.26
2022-08-21T13:20:24.206Z,99881.70
2022-08-21T13:22:54.011Z,99873.58
2022-08-21T13:25:30.166Z,99870.26
2022-08-21T13:28:07.671Z,99865.53
2022-08-21T13:30:44.116Z,99874.62
2022-08-21T13:33:15.766Z,99874.62
2022-08-21T13:36:02.314Z,99874.30
2022-08-21T13:38:36.221Z,99872.96
2022-08-21T13:41:19.281Z,99870.22
2022-08-21T13:43:53.356Z,99873.11
2022-08-21T13:46:23.971Z,99877.33
2022-08-21T13:48:53.665Z,99872.28
2022-08-21T13:51:25.086Z,99871.05
2022-08-21T13:53:56.663Z,99866.50
2022-08-21T13:56:45.197Z,99870.66
2022-08-21T13:59:34.868Z,99874.22
2022-08-21T14:02:20.212Z,99877.80
2022-08-21T14:05:00.179Z,99872.17
2022-08-21T14:07:39.936Z,99872.42
2022-08-21T14:10:16.581Z,99874.33
2022-08-21T14:12:55.151Z,99877.00
2022-08-21T14:15:29.174Z,99877.50
2022-08-21T14:18:18.361Z,99883.97
2022-08-21T14:20:48.313Z,99881.08
2022-08-21T14:23:27.740Z,99878.84
2022-08-21T14:26:04.172Z,99880.83
2022-08-21T14:28:37.468Z,99892.59
2022-08-21T14:31:20.974Z,99886.06
2022-08-21T14:33:51.492Z,99879.73
2022-08-21T14:36:22.058Z,99881.82
2022-08-21T14:38:54.063Z,99873.84
2022-08-21T14:41:26.387Z,99870.72
2022-08-21T14:44:05.933Z,99875.41
2022-08-21T14:46:30.170Z,99884.01
2022-08-21T14:49:00.202Z,99878.95
2022-08-21T14:51:29.333Z,99879.53
2022-08-21T14:53:58.237Z,99879.28
2022-08-21T14:56:27.048Z,99882.31
2022-08-21T14:58:57.194Z,99875.48
2022-08-21T15:01:28.725Z,99872.20
2022-08-21T15:03:58.383Z,99885.84
2022-08-21T15:06:28.520Z,99882.84
2022-08-21T15:08:58.307Z,99885.54
2022-08-21T15:11:41.771Z,99885.61
2022-08-21T15:14:01.197Z,99881.71
2022-08-21T15:16:32.087Z,99881.64
2022-08-21T15:19:02.667Z,99881.32
2022-08-21T15:21:33.023Z,99886.63
2022-08-21T15:24:03.213Z,99873.96
2022-08-21T15:26:32.940Z,99878.89
2022-08-21T15:29:02.547Z,99878.70
2022-08-21T15:31:34.815Z,99879.64
2022-08-21T15:34:04.751Z,99883.48
2022-08-21T15:36:35.088Z,99880.81
2022-08-21T15:39:05.986Z,99882.66
2022-08-21T15:41:35.866Z,99877.42
2022-08-21T15:44:05.093Z,99879.28
2022-08-21T15:46:35.743Z,99880.78
2022-08-21T15:49:06.232Z,99877.84
2022-08-21T15:51:35.329Z,99878.03
2022-08-21T15:54:07.303Z,99879.81
2022-08-21T15:56:39.956Z,99889.46
2022-08-21T15:59:17.042Z,99887.55
2022-08-21T16:01:46.867Z,99893.22
2022-08-21T16:04:21.311Z,99882.91
2022-08-21T16:06:54.179Z,99879.89
2022-08-21T16:09:23.079Z,99884.42
2022-08-21T16:11:55.461Z,99883.14
2022-08-21T16:14:25.794Z,99884.92
2022-08-21T16:16:56.223Z,99883.95
2022-08-21T16:19:27.642Z,99887.97
2022-08-21T16:21:58.260Z,99888.59
2022-08-21T16:24:28.710Z,99885.84
2022-08-21T16:26:58.419Z,99891.78
2022-08-21T16:29:31.517Z,99896.59
2022-08-21T16:32:01.635Z,99897.47
2022-08-21T16:34:31.580Z,99905.07
2022-08-21T16:37:01.455Z,99903.47
2022-08-21T16:39:32.035Z,99904.98
2022-08-21T16:42:01.905Z,99902.02
2022-08-21T16:44:34.265Z,99905.61
2022-08-21T16:47:05.264Z,99902.94
2022-08-21T16:49:35.517Z,99908.13
2022-08-21T16:52:14.630Z,99912.18
2022-08-21T16:54:42.327Z,99912.02
2022-08-21T16:57:12.967Z,99914.41
2022-08-21T16:59:43.335Z,99912.48
2022-08-21T17:02:33.601Z,99915.92
2022-08-21T17:05:03.289Z,99915.14
2022-08-21T17:07:36.802Z,99914.14
2022-08-21T17:10:06.738Z,99910.28
2022-08-21T17:12:38.426Z,99919.05
2022-08-21T17:15:21.346Z,99928.92
2022-08-21T17:17:51.465Z,99932.91
2022-08-21T17:20:21.425Z,99929.94
2022-08-21T17:22:50.859Z,99931.69
2022-08-21T17:25:22.334Z,99930.33
2022-08-21T17:27:52.291Z,99937.12
2022-08-21T17:30:21.381Z,99945.31
2022-08-21T17:32:53.032Z,99945.36
2022-08-21T17:35:23.438Z,99946.53
2022-08-21T17:37:54.439Z,99935.94
2022-08-21T17:40:25.376Z,99940.18
2022-08-21T17:42:58.319Z,99941.32
2022-08-21T17:45:28.512Z,99941.36
2022-08-21T17:47:57.824Z,99944.52
2022-08-21T17:50:28.410Z,99945.42
2022-08-21T17:52:58.710Z,99944.89
2022-08-21T17:55:30.550Z,99952.55
2022-08-21T17:58:02.167Z,99944.78
2022-08-21T18:00:32.229Z,99949.86
2022-08-21T18:03:07.337Z,99950.73
2022-08-21T18:05:37.273Z,99952.44
2022-08-21T18:08:06.924Z,99947.44
2022-08-21T18:10:37.658Z,99954.48
2022-08-21T18:13:09.246Z,99955.39
2022-08-21T18:15:39.264Z,99956.25
2022-08-21T18:18:09.413Z,99959.36
2022-08-21T18:20:39.415Z,99961.02
2022-08-21T18:23:08.738Z,99968.89
2022-08-21T18:25:38.240Z,99968.39
2022-08-21T18:28:09.052Z,99962.30
2022-08-21T18:30:42.548Z,99959.53
2022-08-21T18:33:13.323Z,99953.13
2022-08-21T18:35:44.488Z,99956.53
2022-08-21T18:38:19.366Z,99961.86
2022-08-21T18:40:55.715Z,99953.49
2022-08-21T18:43:23.021Z,99951.86
2022-08-21T18:45:53.348Z,99956.33
2022-08-21T18:48:26.844Z,99963.09
2022-08-21T18:50:55.472Z,99961.19
2022-08-21T18:53:27.987Z,99958.16
2022-08-21T18:56:05.289Z,99959.55
2022-08-21T18:58:33.840Z,99957.38
2022-08-21T19:01:05.884Z,99960.47
2022-08-21T19:03:36.073Z,99955.70
2022-08-21T19:06:11.780Z,99952.91
2022-08-21T19:08:38.575Z,99958.30
2022-08-21T19:11:10.821Z,99954.98
2022-08-21T19:13:40.672Z,99959.25
2022-08-21T19:16:30.458Z,99967.94
2022-08-21T19:19:02.908Z,99960.14
2022-08-21T19:21:35.703Z,99958.73
2022-08-21T19:24:17.276Z,99958.47
2022-08-21T19:26:42.056Z,99959.87
2022-08-21T19:29:14.769Z,99960.16
2022-08-21T19:31:45.867Z,99954.56
2022-08-21T19:34:22.073Z,99959.95
2022-08-21T19:36:51.298Z,99963.09
2022-08-21T19:39:23.141Z,99953.66
2022-08-21T19:41:58.694Z,99959.81
2022-08-21T19:44:29.457Z,99964.03
2022-08-21T19:47:04.832Z,99966.85
2022-08-21T19:49:34.947Z,99968.25
2022-08-21T19:52:12.867Z,99965.75
2022-08-21T19:54:36.367Z,99965.77
2022-08-21T19:57:06.751Z,99968.88
2022-08-21T19:59:37.025Z,99968.34
2022-08-21T20:02:09.660Z,99968.63
2022-08-21T20:04:40.622Z,99962.77
2022-08-21T20:07:12.964Z,99963.34
2022-08-21T20:09:45.013Z,99966.73
2022-08-21T20:12:16.865Z,99964.23
2022-08-21T20:14:49.661Z,99966.19
2022-08-21T20:17:18.728Z,99970.11
2022-08-21T20:19:53.958Z,99961.74
2022-08-21T20:22:21.669Z,99956.52
2022-08-21T20:24:53.064Z,99963.81
2022-08-21T20:27:44.175Z,99966.89
2022-08-21T20:30:18.461Z,99963.84
2022-08-21T20:32:49.330Z,99964.70
2022-08-21T20:35:19.511Z,99967.25
2022-08-21T20:37:58.481Z,99963.91
2022-08-21T20:40:21.259Z,99969.78
2022-08-21T20:42:52.979Z,99957.21
2022-08-21T20:45:32.355Z,99958.91
2022-08-21T20:51:30.332Z,99954.22
2022-08-21T20:54:20.195Z,99955.07
2022-08-21T20:56:58.347Z,99960.67
2022-08-21T20:59:44.864Z,99953.13
2022-08-21T21:02:52.346Z,99949.79
2022-08-21T21:05:27.773Z,99961.25
2022-08-21T21:08:29.534Z,99961.25
2022-08-21T21:11:06.279Z,99961.25
2022-08-21T21:13:47.481Z,99953.44
2022-08-21T21:16:22.179Z,99960.41
2022-08-21T21:19:05.928Z,99958.73
2022-08-21T21:21:53.907Z,99956.78
2022-08-21T21:24:30.240Z,99946.45
2022-08-21T21:27:20.450Z,99956.48
2022-08-21T21:30:06.013Z,99952.30
2022-08-21T21:32:38.934Z,99954.26
2022-08-21T21:35:08.560Z,99962.92
2022-08-21T21:38:04.842Z,99957.05
2022-08-21T21:40:47.534Z,99961.80
2022-08-21T21:43:50.012Z,99964.34
2022-08-21T21:46:33.533Z,99965.19
2022-08-21T21:52:10.043Z,99960.20
2022-08-21T21:55:00.422Z,99966.34
2022-08-21T21:57:49.585Z,99962.19
2022-08-21T22:00:26.612Z,99963.30
2022-08-21T22:03:03.772Z,99955.50
2022-08-21T22:05:59.924Z,99957.75
2022-08-21T22:08:50.538Z,99961.67
2022-08-21T22:11:29.358Z,99949.40
2022-08-21T22:14:14.604Z,99951.93
2022-08-21T22:16:46.083Z,99951.67
2022-08-21T22:19:26.413Z,99954.20
2022-08-21T22:22:09.682Z,99950.30
2022-08-21T22:24:43.881Z,99946.97
2022-08-21T22:27:27.288Z,99946.72
2022-08-21T22:29:59.409Z,99938.66
2022-08-21T22:32:39.315Z,99944.25
2022-08-21T22:35:23.541Z,99937.55
2022-08-21T22:37:55.523Z,99939.77
2022-08-21T22:40:32.418Z,99941.73
2022-08-21T22:43:16.104Z,99943.41
2022-08-21T22:46:07.945Z,99940.61
2022-08-21T22:51:17.675Z,99947.63
2022-08-21T22:53:48.391Z,99950.41
2022-08-21T22:56:33.372Z,99947.63
2022-08-21T22:59:06.515Z,99944.00
2022-08-21T23:01:43.133Z,99942.61
2022-08-21T23:04:22.123Z,99946.79
2022-08-21T23:07:01.671Z,99946.52
2022-08-21T23:09:36.188Z,99947.64
2022-08-21T23:12:21.229Z,99945.41
2022-08-21T23:14:41.119Z,99945.97
2022-08-21T23:17:15.378Z,99946.80
2022-08-21T23:20:10.391Z,99938.44
2022-08-21T23:23:24.088Z,99935.09
2022-08-21T23:26:25.210Z,99933.70
2022-08-21T23:29:07.883Z,99934.27
2022-08-21T23:31:51.553Z,99934.56
2022-08-21T23:34:41.114Z,99936.80
2022-08-21T23:37:51.404Z,99933.73
2022-08-21T23:40:50.661Z,99931.23
2022-08-21T23:43:51.696Z,99928.43
2022-08-21T23:46:41.094Z,99928.70
2022-08-21T23:49:44.217Z,99925.63
2022-08-21T23:52:40.165Z,99925.35
2022-08-21T23:55:35.392Z,99925.09
2022-08-21T23:58:24.891Z,99925.39
